Taiki Maru — JI3464 — position and weather

sailwx.info

Track history (hours):
 
Tides and Currents Weather Stations Pressure Air Temp Water Temp Dewpoint Dewpoint Depression Visibility Wind Speed Wind Dir Waves Ship Positions

Taiki Maru

Last reported at 2016-Aug-21 08:11 UTC. Time now 2016-Aug-26 04:59 UTC.
Position N 34°36' E 134°54'.

Length 93 m; draft 5.2 m.

Type: Cargo ship. MMSI: 431300622.

Date/timePositionNaut miles runAvg speedWind from/ knotsBaromVisibWave heightAir tempDewpointWater temp
2016-Aug-21 08:11N 34°36' E 134°54'710.8
2016-Aug-21 07:33N 34°37' E 135°02'10 9.5
2016-Aug-21 06:33N 34°28' E 135°03'1212.3
2016-Aug-21 05:33N 34°16' E 134°59'1412.8
2016-Aug-21 04:26N 34°01' E 134°59'  
2016-Aug-17 04:33N 35°14' E 139°46'1211.9
2016-Aug-17 03:33N 35°25' E 139°42'4 3.9
2016-Aug-17 02:31N 35°29' E 139°40'0 0.0
2016-Aug-17 01:32N 35°29' E 139°40'0 0.0
2016-Aug-17 00:31N 35°29' E 139°40'0 0.0
2016-Aug-16 23:31N 35°29' E 139°40'0 0.0
2016-Aug-16 22:31N 35°29' E 139°40'0 0.0
2016-Aug-16 21:31N 35°29' E 139°40'0 0.0
2016-Aug-16 20:31N 35°29' E 139°40'0 0.0
2016-Aug-16 19:31N 35°29' E 139°40'0 0.0
2016-Aug-16 18:31N 35°29' E 139°40'0 0.0
2016-Aug-16 17:31N 35°29' E 139°40'0 0.0
2016-Aug-16 16:31N 35°29' E 139°40'0 0.0
2016-Aug-16 15:31N 35°29' E 139°40'0 0.0
2016-Aug-16 14:31N 35°29' E 139°40'0 0.0
2016-Aug-16 13:31N 35°29' E 139°40'0 0.0
2016-Aug-16 12:31N 35°29' E 139°40'0 0.0
2016-Aug-16 11:31N 35°29' E 139°40'0 0.0
2016-Aug-16 10:31N 35°29' E 139°40'0 0.0
2016-Aug-16 09:31N 35°29' E 139°40'0 0.0
2016-Aug-16 08:31N 35°29' E 139°40'0 0.0
2016-Aug-16 07:31N 35°29' E 139°40'0 0.0
2016-Aug-16 06:31N 35°29' E 139°40'0 0.0
2016-Aug-16 04:31N 35°29' E 139°40'0 0.0
2016-Aug-16 03:31N 35°29' E 139°40'0 0.0
2016-Aug-16 02:31N 35°29' E 139°40'0 0.0
2016-Aug-16 01:31N 35°29' E 139°40'0 0.0
2016-Aug-16 00:31N 35°29' E 139°40'0 0.0
2016-Aug-15 23:31N 35°29' E 139°40'0 0.0
2016-Aug-15 22:31N 35°29' E 139°40'0 0.0
2016-Aug-15 21:31N 35°29' E 139°40'0 0.0
2016-Aug-15 20:31N 35°29' E 139°40'0 0.0
2016-Aug-15 19:31N 35°29' E 139°40'0 0.0
2016-Aug-15 18:31N 35°29' E 139°40'0 0.0
2016-Aug-15 17:31N 35°29' E 139°40'0 0.0
2016-Aug-15 16:31N 35°29' E 139°40'0 0.0
2016-Aug-15 15:32N 35°29' E 139°40'0 0.0
2016-Aug-15 14:31N 35°29' E 139°40'0 0.0
2016-Aug-15 13:31N 35°29' E 139°40'0 0.0
2016-Aug-15 12:31N 35°29' E 139°40'0 0.0
2016-Aug-15 11:31N 35°29' E 139°40'0 0.0
2016-Aug-15 10:31N 35°29' E 139°40'0 0.0
2016-Aug-15 09:31N 35°29' E 139°40'0 0.0
2016-Aug-15 08:31N 35°29' E 139°40'0 0.0
2016-Aug-15 07:31N 35°29' E 139°40'0 0.0
2016-Aug-15 06:31N 35°29' E 139°40'0 0.0
2016-Aug-15 04:31N 35°29' E 139°40'0 0.0
2016-Aug-15 03:31N 35°29' E 139°40'0 0.0
2016-Aug-15 02:31N 35°29' E 139°40'0 0.0
2016-Aug-15 01:31N 35°29' E 139°40'0 0.0
2016-Aug-15 00:31N 35°29' E 139°40'0 0.0
2016-Aug-14 23:31N 35°29' E 139°40'2 1.9
2016-Aug-14 22:34N 35°27' E 139°41'4 4.0
2016-Aug-14 21:31N 35°24' E 139°44'0 0.1
2016-Aug-14 20:31N 35°23' E 139°44'5 5.3
2016-Aug-14 19:34N 35°18' E 139°44'1211.5
2016-Aug-14 18:34N 35°07' E 139°46'24510.2
2016-Aug-13 18:31N 34°04' E 134°58'2512.4
2016-Aug-13 16:31N 34°29' E 135°02'8 8.2
2016-Aug-13 15:30N 34°36' E 134°57'  
2016-Aug-11 10:05N 34°41' E 134°42'1013.2
2016-Aug-11 09:18N 34°37' E 134°54'1013.1
2016-Aug-11 08:34N 34°35' E 135°05'  
Track history (hours):
 
Tides and Currents Weather Stations Pressure Air Temp Water Temp Dewpoint Dewpoint Depression Visibility Wind Speed Wind Dir Waves Ship Positions

Taiki Maru

Last reported at 2016-Aug-21 08:11 UTC. Time now 2016-Aug-26 04:59 UTC.
Position N 34°36' E 134°54'.

Length 93 m; draft 5.2 m.

Type: Cargo ship. MMSI: 431300622.

Date/timePositionNaut miles runAvg speedWind from/ knotsBaromVisibWave heightAir tempDewpointWater temp
2016-Aug-21 08:11N 34°36' E 134°54'710.8
2016-Aug-21 07:33N 34°37' E 135°02'10 9.5
2016-Aug-21 06:33N 34°28' E 135°03'1212.3
2016-Aug-21 05:33N 34°16' E 134°59'1412.8
2016-Aug-21 04:26N 34°01' E 134°59'  
2016-Aug-17 04:33N 35°14' E 139°46'1211.9
2016-Aug-17 03:33N 35°25' E 139°42'4 3.9
2016-Aug-17 02:31N 35°29' E 139°40'0 0.0
2016-Aug-17 01:32N 35°29' E 139°40'0 0.0
2016-Aug-17 00:31N 35°29' E 139°40'0 0.0
2016-Aug-16 23:31N 35°29' E 139°40'0 0.0
2016-Aug-16 22:31N 35°29' E 139°40'0 0.0
2016-Aug-16 21:31N 35°29' E 139°40'0 0.0
2016-Aug-16 20:31N 35°29' E 139°40'0 0.0
2016-Aug-16 19:31N 35°29' E 139°40'0 0.0
2016-Aug-16 18:31N 35°29' E 139°40'0 0.0
2016-Aug-16 17:31N 35°29' E 139°40'0 0.0
2016-Aug-16 16:31N 35°29' E 139°40'0 0.0
2016-Aug-16 15:31N 35°29' E 139°40'0 0.0
2016-Aug-16 14:31N 35°29' E 139°40'0 0.0
2016-Aug-16 13:31N 35°29' E 139°40'0 0.0
2016-Aug-16 12:31N 35°29' E 139°40'0 0.0
2016-Aug-16 11:31N 35°29' E 139°40'0 0.0
2016-Aug-16 10:31N 35°29' E 139°40'0 0.0
2016-Aug-16 09:31N 35°29' E 139°40'0 0.0
2016-Aug-16 08:31N 35°29' E 139°40'0 0.0
2016-Aug-16 07:31N 35°29' E 139°40'0 0.0
2016-Aug-16 06:31N 35°29' E 139°40'0 0.0
2016-Aug-16 04:31N 35°29' E 139°40'0 0.0
2016-Aug-16 03:31N 35°29' E 139°40'0 0.0
2016-Aug-16 02:31N 35°29' E 139°40'0 0.0
2016-Aug-16 01:31N 35°29' E 139°40'0 0.0
2016-Aug-16 00:31N 35°29' E 139°40'0 0.0
2016-Aug-15 23:31N 35°29' E 139°40'0 0.0
2016-Aug-15 22:31N 35°29' E 139°40'0 0.0
2016-Aug-15 21:31N 35°29' E 139°40'0 0.0
2016-Aug-15 20:31N 35°29' E 139°40'0 0.0
2016-Aug-15 19:31N 35°29' E 139°40'0 0.0
2016-Aug-15 18:31N 35°29' E 139°40'0 0.0
2016-Aug-15 17:31N 35°29' E 139°40'0 0.0
2016-Aug-15 16:31N 35°29' E 139°40'0 0.0
2016-Aug-15 15:32N 35°29' E 139°40'0 0.0
2016-Aug-15 14:31N 35°29' E 139°40'0 0.0
2016-Aug-15 13:31N 35°29' E 139°40'0 0.0
2016-Aug-15 12:31N 35°29' E 139°40'0 0.0
2016-Aug-15 11:31N 35°29' E 139°40'0 0.0
2016-Aug-15 10:31N 35°29' E 139°40'0 0.0
2016-Aug-15 09:31N 35°29' E 139°40'0 0.0
2016-Aug-15 08:31N 35°29' E 139°40'0 0.0
2016-Aug-15 07:31N 35°29' E 139°40'0 0.0
2016-Aug-15 06:31N 35°29' E 139°40'0 0.0
2016-Aug-15 04:31N 35°29' E 139°40'0 0.0
2016-Aug-15 03:31N 35°29' E 139°40'0 0.0
2016-Aug-15 02:31N 35°29' E 139°40'0 0.0
2016-Aug-15 01:31N 35°29' E 139°40'0 0.0
2016-Aug-15 00:31N 35°29' E 139°40'0 0.0
2016-Aug-14 23:31N 35°29' E 139°40'2 1.9
2016-Aug-14 22:34N 35°27' E 139°41'4 4.0
2016-Aug-14 21:31N 35°24' E 139°44'0 0.1
2016-Aug-14 20:31N 35°23' E 139°44'5 5.3
2016-Aug-14 19:34N 35°18' E 139°44'1211.5
2016-Aug-14 18:34N 35°07' E 139°46'24510.2
2016-Aug-13 18:31N 34°04' E 134°58'2512.4
2016-Aug-13 16:31N 34°29' E 135°02'8 8.2
2016-Aug-13 15:30N 34°36' E 134°57'  
2016-Aug-11 10:05N 34°41' E 134°42'1013.2
2016-Aug-11 09:18N 34°37' E 134°54'1013.1
2016-Aug-11 08:34N 34°35' E 135°05'  

Dump ship's entire track history